createdAt,value
2022-12-16T00:00:15.916Z,65.03
2022-12-16T00:02:43.421Z,58.40
2022-12-16T00:05:10.663Z,60.53
2022-12-16T00:07:37.977Z,62.53
2022-12-16T00:10:06.861Z,56.40
2022-12-16T00:12:34.094Z,62.28
2022-12-16T00:15:01.536Z,57.28
2022-12-16T00:17:28.736Z,60.78
2022-12-16T00:19:55.970Z,60.25
2022-12-16T00:22:23.930Z,67.65
2022-12-16T00:24:51.182Z,62.03
2022-12-16T00:27:19.368Z,81.93
2022-12-16T00:29:46.500Z,75.47
2022-12-16T00:32:13.652Z,75.18
2022-12-16T00:34:40.849Z,74.57
2022-12-16T00:37:08.004Z,81.28
2022-12-16T00:39:35.320Z,81.82
2022-12-16T00:42:02.511Z,92.30
2022-12-16T00:44:29.690Z,86.57
2022-12-16T00:46:56.902Z,77.05
2022-12-16T00:49:24.092Z,82.32
2022-12-16T00:51:51.205Z,86.57
2022-12-16T00:54:18.489Z,80.97
2022-12-16T00:56:45.804Z,78.53
2022-12-16T00:59:13.037Z,79.45
2022-12-16T01:01:40.497Z,82.82
2022-12-16T01:04:07.779Z,80.45
2022-12-16T01:06:35.557Z,89.80
2022-12-16T01:09:03.867Z,82.55
2022-12-16T01:11:31.308Z,91.18
2022-12-16T01:13:59.540Z,88.20
2022-12-16T01:16:26.760Z,81.38
2022-12-16T01:18:56.247Z,88.90
2022-12-16T01:21:23.626Z,85.40
2022-12-16T01:23:50.981Z,96.82
2022-12-16T01:26:18.742Z,94.68
2022-12-16T01:28:49.255Z,84.65
2022-12-16T01:31:19.084Z,90.90
2022-12-16T01:33:47.228Z,91.18
2022-12-16T01:36:14.372Z,99.85
2022-12-16T01:38:44.452Z,79.43
2022-12-16T01:41:15.425Z,80.05
2022-12-16T01:43:45.485Z,70.32
2022-12-16T01:46:12.561Z,68.07
2022-12-16T01:49:01.359Z,71.60
2022-12-16T01:51:48.841Z,72.32
2022-12-16T01:54:26.770Z,76.15
2022-12-16T01:57:07.177Z,69.28
2022-12-16T01:59:39.235Z,72.63
2022-12-16T02:02:06.949Z,74.30
2022-12-16T02:04:34.305Z,71.78
2022-12-16T02:07:01.984Z,57.08
2022-12-16T02:09:29.303Z,58.22
2022-12-16T02:12:41.429Z,56.45
2022-12-16T02:15:41.331Z,59.13
2022-12-16T02:18:48.660Z,66.90
2022-12-16T02:21:46.006Z,60.60
2022-12-16T02:24:40.872Z,73.93
2022-12-16T02:27:30.254Z,66.85
2022-12-16T02:30:08.744Z,72.80
2022-12-16T02:33:03.168Z,64.32
2022-12-16T02:36:26.107Z,66.85
2022-12-16T02:39:17.081Z,63.78
2022-12-16T02:41:56.566Z,58.85
2022-12-16T02:44:45.429Z,74.95
2022-12-16T02:47:12.866Z,78.05
2022-12-16T02:49:50.829Z,67.93
2022-12-16T02:52:23.483Z,64.70
2022-12-16T02:55:01.778Z,72.93
2022-12-16T02:58:10.781Z,82.57
2022-12-16T03:01:15.144Z,81.07
2022-12-16T03:04:22.614Z,83.55
2022-12-16T03:06:52.618Z,84.60
2022-12-16T03:09:28.616Z,70.75
2022-12-16T03:11:57.759Z,85.60
2022-12-16T03:14:32.239Z,79.00
2022-12-16T03:17:00.428Z,82.03
2022-12-16T03:19:30.326Z,90.80
2022-12-16T03:22:14.210Z,78.50
2022-12-16T03:24:42.152Z,86.57
2022-12-16T03:27:55.332Z,85.63
2022-12-16T03:30:36.192Z,85.72
2022-12-16T03:33:31.576Z,95.60
2022-12-16T03:36:17.016Z,98.27
2022-12-16T03:38:47.057Z,93.87
2022-12-16T03:41:18.554Z,85.28
2022-12-16T03:43:46.650Z,99.07
2022-12-16T03:46:14.749Z,96.70
2022-12-16T03:48:51.529Z,93.03
2022-12-16T03:51:20.659Z,91.53
2022-12-16T03:53:47.814Z,91.53
2022-12-16T03:56:15.018Z,100.35
2022-12-16T03:58:42.394Z,100.82
2022-12-16T04:01:10.997Z,90.60
2022-12-16T04:03:38.838Z,99.80
2022-12-16T04:06:06.423Z,106.28
2022-12-16T04:08:33.627Z,102.85
2022-12-16T04:11:19.644Z,100.40
2022-12-16T04:16:51.491Z,107.28
2022-12-16T04:22:48.725Z,100.95
2022-12-16T04:25:22.979Z,96.70
2022-12-16T04:27:50.399Z,103.63
2022-12-16T04:30:20.755Z,104.47
2022-12-16T04:33:12.173Z,104.80
2022-12-16T04:35:58.165Z,95.05
2022-12-16T04:38:44.854Z,111.97
2022-12-16T04:41:30.920Z,106.20
2022-12-16T04:47:02.999Z,102.03
2022-12-16T04:52:35.080Z,94.07
2022-12-16T04:55:21.187Z,96.35
2022-12-16T05:01:03.632Z,95.65
2022-12-16T05:03:50.173Z,105.45
2022-12-16T05:06:36.614Z,102.75
2022-12-16T05:09:24.740Z,97.57
2022-12-16T05:12:10.809Z,110.43
2022-12-16T05:17:42.934Z,92.30
2022-12-16T05:20:29.560Z,113.88
2022-12-16T05:23:16.136Z,110.82
2022-12-16T05:26:02.141Z,115.90
2022-12-16T05:28:48.108Z,106.60
2022-12-16T05:31:34.104Z,98.45
2022-12-16T05:34:19.883Z,104.85
2022-12-16T05:37:05.775Z,115.40
2022-12-16T05:39:51.623Z,111.88
2022-12-16T05:42:37.550Z,113.40
2022-12-16T05:45:24.035Z,114.78
2022-12-16T05:48:09.919Z,122.93
2022-12-16T05:50:56.025Z,109.10
2022-12-16T05:56:27.504Z,112.85
2022-12-16T05:59:13.408Z,116.20
2022-12-16T06:01:59.516Z,117.72
2022-12-16T06:04:45.269Z,132.63
2022-12-16T06:07:31.196Z,120.38
2022-12-16T06:10:17.066Z,139.27
2022-12-16T06:13:06.429Z,134.93
2022-12-16T06:15:52.494Z,113.55
2022-12-16T06:21:24.365Z,129.30
2022-12-16T06:26:55.871Z,126.97
2022-12-16T06:29:41.995Z,123.70
2022-12-16T06:35:13.493Z,130.10
2022-12-16T06:40:45.327Z,115.43
2022-12-16T06:43:31.674Z,120.80
2022-12-16T06:46:18.120Z,134.25
2022-12-16T06:49:04.041Z,120.43
2022-12-16T06:51:49.929Z,122.70
2022-12-16T06:54:35.948Z,133.55
2022-12-16T06:57:21.841Z,128.15
2022-12-16T07:00:08.017Z,140.48
2022-12-16T07:02:54.091Z,115.53
2022-12-16T07:05:40.308Z,118.38
2022-12-16T07:11:16.521Z,128.23
2022-12-16T07:14:03.566Z,126.90
2022-12-16T07:16:54.333Z,129.35
2022-12-16T07:19:40.475Z,122.38
2022-12-16T07:22:26.494Z,121.25
2022-12-16T07:25:12.313Z,117.32
2022-12-16T07:27:58.333Z,132.30
2022-12-16T07:30:44.256Z,131.93
2022-12-16T07:33:30.486Z,123.00
2022-12-16T07:36:16.792Z,111.53
2022-12-16T07:41:48.777Z,115.18
2022-12-16T07:44:34.796Z,109.85
2022-12-16T07:47:20.752Z,125.15
2022-12-16T07:50:06.900Z,113.50
2022-12-16T07:55:41.432Z,114.25
2022-12-16T07:58:28.909Z,106.10
2022-12-16T08:01:14.817Z,113.25
2022-12-16T08:04:01.102Z,119.80
2022-12-16T08:06:47.251Z,107.32
2022-12-16T08:12:18.943Z,123.80
2022-12-16T08:17:50.509Z,117.07
2022-12-16T08:20:38.694Z,100.22
2022-12-16T08:23:24.720Z,100.13
2022-12-16T08:26:10.782Z,98.88
2022-12-16T08:32:00.122Z,103.18
2022-12-16T08:34:46.044Z,100.05
2022-12-16T08:37:32.043Z,103.45
2022-12-16T08:40:34.918Z,102.50
2022-12-16T08:43:22.966Z,104.95
2022-12-16T08:46:12.785Z,101.45
2022-12-16T08:48:58.989Z,110.13
2022-12-16T08:54:31.201Z,99.47
2022-12-16T08:57:17.417Z,103.65
2022-12-16T09:00:03.380Z,110.47
2022-12-16T09:05:35.573Z,95.60
2022-12-16T09:08:23.503Z,97.05
2022-12-16T09:11:09.682Z,97.90
2022-12-16T09:16:41.172Z,96.07
2022-12-16T09:19:28.821Z,103.82
2022-12-16T09:22:14.823Z,96.28
2022-12-16T09:25:00.719Z,97.55
2022-12-16T09:27:46.880Z,107.35
2022-12-16T09:30:32.870Z,96.80
2022-12-16T09:33:21.381Z,91.43
2022-12-16T09:36:07.386Z,81.28
2022-12-16T09:38:53.196Z,83.88
2022-12-16T09:42:03.837Z,85.32
2022-12-16T09:45:37.421Z,83.00
2022-12-16T09:48:44.058Z,86.60
2022-12-16T09:51:31.852Z,88.90
2022-12-16T09:54:20.345Z,90.10
2022-12-16T09:57:07.291Z,90.82
2022-12-16T10:00:00.305Z,94.55
2022-12-16T10:02:46.617Z,95.82
2022-12-16T10:05:38.106Z,92.13
2022-12-16T10:08:40.297Z,98.57
2022-12-16T10:12:08.324Z,97.30
2022-12-16T10:15:09.085Z,97.10
2022-12-16T10:18:02.911Z,104.75
2022-12-16T10:21:30.254Z,104.63
2022-12-16T10:24:59.757Z,114.28
2022-12-16T10:28:07.383Z,104.72
2022-12-16T10:30:56.928Z,113.65
2022-12-16T10:33:47.438Z,103.63
2022-12-16T10:36:42.247Z,101.00
2022-12-16T10:39:57.040Z,108.25
2022-12-16T10:42:55.687Z,97.57
2022-12-16T10:45:55.433Z,94.43
2022-12-16T10:48:55.118Z,93.93
2022-12-16T10:51:47.119Z,98.72
2022-12-16T10:54:42.648Z,96.47
2022-12-16T10:57:52.080Z,93.32
2022-12-16T11:01:04.920Z,94.68
2022-12-16T11:03:54.634Z,86.43
2022-12-16T11:06:58.360Z,81.75
2022-12-16T11:09:51.071Z,83.18
2022-12-16T11:12:50.897Z,87.77
2022-12-16T11:15:41.922Z,87.10
2022-12-16T11:18:37.993Z,90.20
2022-12-16T11:21:37.914Z,97.80
2022-12-16T11:24:35.224Z,103.95
2022-12-16T11:27:42.457Z,89.60
2022-12-16T11:30:37.720Z,84.38
2022-12-16T11:33:42.376Z,78.78
2022-12-16T11:36:42.213Z,82.03
2022-12-16T11:39:36.748Z,82.55
2022-12-16T11:42:25.388Z,69.53
2022-12-16T11:45:17.549Z,73.15
2022-12-16T11:48:50.496Z,72.63
2022-12-16T11:51:37.805Z,72.82
2022-12-16T11:54:42.599Z,71.88
2022-12-16T11:58:06.407Z,77.20
2022-12-16T12:01:04.328Z,77.20
2022-12-16T12:04:01.039Z,77.60
2022-12-16T12:07:33.957Z,73.43
2022-12-16T12:11:14.661Z,80.05
2022-12-16T12:14:50.023Z,80.22
2022-12-16T12:18:01.344Z,74.55
2022-12-16T12:21:17.210Z,80.88
2022-12-16T12:25:15.325Z,80.30
2022-12-16T12:28:55.785Z,80.68
2022-12-16T12:32:59.615Z,119.15
2022-12-16T12:36:23.400Z,88.90
2022-12-16T12:39:39.162Z,91.65
2022-12-16T12:43:03.994Z,93.55
2022-12-16T12:46:27.829Z,89.38
2022-12-16T12:49:41.257Z,87.78
2022-12-16T12:53:11.977Z,92.43
2022-12-16T12:56:29.801Z,91.53
2022-12-16T12:59:23.225Z,84.93
2022-12-16T13:02:12.368Z,93.32
2022-12-16T13:04:59.113Z,87.05
2022-12-16T13:07:45.164Z,95.70
2022-12-16T13:10:42.893Z,98.88
2022-12-16T13:13:34.920Z,86.00
2022-12-16T13:16:29.424Z,87.93
2022-12-16T13:19:49.389Z,92.20
2022-12-16T13:22:55.846Z,82.75
2022-12-16T13:26:09.546Z,85.78
2022-12-16T13:29:00.125Z,94.68
2022-12-16T13:31:49.073Z,95.63
2022-12-16T13:34:34.610Z,93.22
2022-12-16T13:37:28.515Z,88.93
2022-12-16T13:40:41.550Z,91.40
2022-12-16T13:44:11.580Z,82.13
2022-12-16T13:47:14.165Z,75.53
2022-12-16T13:50:09.042Z,79.28
2022-12-16T13:53:16.522Z,75.20
2022-12-16T13:56:15.301Z,76.22
2022-12-16T13:59:12.493Z,78.10
2022-12-16T14:02:21.609Z,87.55
2022-12-16T14:05:12.983Z,79.75
2022-12-16T14:07:59.924Z,86.75
2022-12-16T14:10:57.052Z,92.05
2022-12-16T14:13:49.067Z,107.03
2022-12-16T14:17:03.000Z,96.32
2022-12-16T14:20:35.702Z,88.80
2022-12-16T14:24:13.102Z,92.57
2022-12-16T14:26:59.110Z,98.72
2022-12-16T14:29:50.547Z,95.63
2022-12-16T14:32:52.658Z,89.18
2022-12-16T14:35:43.916Z,100.32
2022-12-16T14:38:47.585Z,100.43
2022-12-16T14:41:44.004Z,99.35
2022-12-16T14:44:43.934Z,101.97
2022-12-16T14:47:40.806Z,93.15
2022-12-16T14:50:48.289Z,92.15
2022-12-16T14:53:41.864Z,91.07
2022-12-16T14:56:41.695Z,87.32
2022-12-16T14:59:34.125Z,97.72
2022-12-16T15:02:53.266Z,97.43
2022-12-16T15:05:55.543Z,105.65
2022-12-16T15:08:43.052Z,106.60
2022-12-16T15:11:34.918Z,105.05
2022-12-16T15:14:22.032Z,100.60
2022-12-16T15:17:10.716Z,106.43
2022-12-16T15:20:09.717Z,108.30
2022-12-16T15:22:57.041Z,124.57
2022-12-16T15:25:45.948Z,115.40
2022-12-16T15:29:01.377Z,120.43
2022-12-16T15:32:01.377Z,102.45
2022-12-16T15:35:07.269Z,114.15
2022-12-16T15:38:04.534Z,116.47
2022-12-16T15:40:52.696Z,116.53
2022-12-16T15:43:57.364Z,117.53
2022-12-16T15:46:48.617Z,115.30
2022-12-16T15:50:03.494Z,110.25
2022-12-16T15:53:02.964Z,120.97
2022-12-16T15:56:13.957Z,120.10
2022-12-16T15:58:59.986Z,119.20
2022-12-16T16:01:47.284Z,122.25
2022-12-16T16:04:48.579Z,129.02
2022-12-16T16:07:42.254Z,117.32
2022-12-16T16:10:43.647Z,118.45
2022-12-16T16:13:29.796Z,111.20
2022-12-16T16:16:15.937Z,117.43
2022-12-16T16:19:02.574Z,111.28
2022-12-16T16:21:49.331Z,105.40
2022-12-16T16:24:35.137Z,116.03
2022-12-16T16:27:24.750Z,110.65
2022-12-16T16:30:10.846Z,118.60
2022-12-16T16:35:42.515Z,118.22
2022-12-16T16:38:32.109Z,121.47
2022-12-16T16:41:18.339Z,114.15
2022-12-16T16:44:04.123Z,129.43
2022-12-16T16:46:59.249Z,119.05
2022-12-16T16:49:59.011Z,117.55
2022-12-16T16:52:46.721Z,129.05
2022-12-16T16:56:02.171Z,131.07
2022-12-16T16:58:52.566Z,137.35
2022-12-16T17:01:38.956Z,135.05
2022-12-16T17:04:24.982Z,142.48
2022-12-16T17:07:11.029Z,144.73
2022-12-16T17:09:57.030Z,141.82
2022-12-16T17:12:48.116Z,141.90
2022-12-16T17:15:44.348Z,134.70
2022-12-16T17:18:30.502Z,131.95
2022-12-16T17:24:02.314Z,135.25
2022-12-16T17:29:44.540Z,138.93
2022-12-16T17:32:31.400Z,157.07
2022-12-16T17:35:18.240Z,145.98
2022-12-16T17:38:04.308Z,151.75
2022-12-16T17:40:50.182Z,138.93
2022-12-16T17:43:36.531Z,164.50
2022-12-16T17:46:28.877Z,161.18
2022-12-16T17:49:17.615Z,169.18
2022-12-16T17:52:03.612Z,154.02
2022-12-16T17:57:35.036Z,162.30
2022-12-16T18:00:21.515Z,156.52
2022-12-16T18:03:07.680Z,158.43
2022-12-16T18:05:53.751Z,148.68
2022-12-16T18:08:40.954Z,142.30
2022-12-16T18:11:27.095Z,150.13
2022-12-16T18:16:58.706Z,142.95
2022-12-16T18:19:44.866Z,141.05
2022-12-16T18:25:16.684Z,126.05
2022-12-16T18:28:02.523Z,141.18
2022-12-16T18:30:48.593Z,123.53
2022-12-16T18:33:34.961Z,141.77
2022-12-16T18:36:20.960Z,132.93
2022-12-16T18:39:07.136Z,137.77
2022-12-16T18:42:00.800Z,134.50
2022-12-16T18:44:46.781Z,136.55
2022-12-16T18:47:32.794Z,135.40
2022-12-16T18:50:23.675Z,126.30
2022-12-16T18:53:13.051Z,131.15
2022-12-16T18:55:59.240Z,117.18
2022-12-16T19:01:38.571Z,124.05
2022-12-16T19:07:10.415Z,116.75
2022-12-16T19:09:56.321Z,125.65
2022-12-16T19:12:42.396Z,120.88
2022-12-16T19:15:28.817Z,126.43
2022-12-16T19:18:14.724Z,119.45
2022-12-16T19:21:00.779Z,128.00
2022-12-16T19:23:46.640Z,126.55
2022-12-16T19:26:32.553Z,114.50
2022-12-16T19:29:18.631Z,118.97
2022-12-16T19:34:50.569Z,106.07
2022-12-16T19:37:37.891Z,127.32
2022-12-16T19:45:56.958Z,111.73
2022-12-16T19:48:42.887Z,114.15
2022-12-16T19:51:28.940Z,115.60
2022-12-16T19:54:14.792Z,113.28
2022-12-16T19:57:00.888Z,110.25
2022-12-16T19:59:46.897Z,108.50
2022-12-16T20:02:33.214Z,114.68
2022-12-16T20:05:19.058Z,114.18
2022-12-16T20:08:05.269Z,113.38
2022-12-16T20:13:37.994Z,102.25
2022-12-16T20:19:14.378Z,113.13
2022-12-16T20:22:06.255Z,120.50
2022-12-16T20:24:56.275Z,114.38
2022-12-16T20:27:43.100Z,111.18
2022-12-16T20:30:30.211Z,109.88
2022-12-16T20:33:16.241Z,116.25
2022-12-16T20:36:02.291Z,109.63
2022-12-16T20:38:48.320Z,110.95
2022-12-16T20:41:34.120Z,110.88
2022-12-16T20:44:20.257Z,105.22
2022-12-16T20:49:51.902Z,104.13
2022-12-16T20:52:37.985Z,101.18
2022-12-16T20:55:24.656Z,104.50
2022-12-16T20:58:11.206Z,103.82
2022-12-16T21:00:57.906Z,108.25
2022-12-16T21:03:44.652Z,104.63
2022-12-16T21:06:31.321Z,108.53
2022-12-16T21:12:03.024Z,110.90
2022-12-16T21:14:49.018Z,121.95
2022-12-16T21:17:34.990Z,103.30
2022-12-16T21:20:21.047Z,111.30
2022-12-16T21:23:07.157Z,112.68
2022-12-16T21:25:53.031Z,109.35
2022-12-16T21:28:41.759Z,111.63
2022-12-16T21:31:27.489Z,118.93
2022-12-16T21:34:13.379Z,113.55
2022-12-16T21:36:59.274Z,108.93
2022-12-16T21:39:45.334Z,107.90
2022-12-16T21:42:35.089Z,109.47
2022-12-16T21:45:23.461Z,109.28
2022-12-16T21:48:13.253Z,111.38
2022-12-16T21:50:59.204Z,111.75
2022-12-16T21:53:45.402Z,101.03
2022-12-16T21:56:31.285Z,105.47
2022-12-16T21:59:17.236Z,104.43
2022-12-16T22:02:04.288Z,105.53
2022-12-16T22:04:50.496Z,104.15
2022-12-16T22:07:37.043Z,108.35
2022-12-16T22:10:24.156Z,105.40
2022-12-16T22:13:30.170Z,104.05
2022-12-16T22:16:18.752Z,104.97
2022-12-16T22:19:04.852Z,107.65
2022-12-16T22:21:50.424Z,105.60
2022-12-16T22:24:36.485Z,103.03
2022-12-16T22:27:22.562Z,100.88
2022-12-16T22:32:54.214Z,101.75
2022-12-16T22:35:42.345Z,98.03
2022-12-16T22:38:28.432Z,98.28
2022-12-16T22:41:16.433Z,101.43
2022-12-16T22:44:02.931Z,97.63
2022-12-16T22:46:49.557Z,104.97
2022-12-16T22:49:35.590Z,94.35
2022-12-16T22:52:22.166Z,95.13
2022-12-16T22:55:08.205Z,95.82
2022-12-16T22:57:54.263Z,97.93
2022-12-16T23:00:40.213Z,98.10
2022-12-16T23:03:26.248Z,100.13
2022-12-16T23:06:12.277Z,101.32
2022-12-16T23:08:58.185Z,88.45
2022-12-16T23:11:54.024Z,85.32
2022-12-16T23:14:43.327Z,87.22
2022-12-16T23:17:30.925Z,88.13
2022-12-16T23:20:17.007Z,85.65
2022-12-16T23:23:02.875Z,92.57
2022-12-16T23:25:48.823Z,91.82
2022-12-16T23:28:34.774Z,91.88
2022-12-16T23:31:20.907Z,88.90
2022-12-16T23:36:52.374Z,89.43
2022-12-16T23:39:39.604Z,87.32
2022-12-16T23:45:11.313Z,88.65
2022-12-16T23:47:57.696Z,84.22
2022-12-16T23:50:43.778Z,85.10
2022-12-16T23:53:30.225Z,90.13
2022-12-16T23:56:20.396Z,83.22
2022-12-16T23:59:07.139Z,74.82
